sensor_id;sensor_type;location;lat;lon;timestamp;P1;durP1;ratioP1;P2;durP2;ratioP2
71127;SDS011;59249;59.736;30.568;2022-12-07T00:02:26;16.17;;;5.93;;
71127;SDS011;59249;59.736;30.568;2022-12-07T00:04:55;14.70;;;6.60;;
71127;SDS011;59249;59.736;30.568;2022-12-07T00:07:25;15.20;;;5.90;;
71127;SDS011;59249;59.736;30.568;2022-12-07T00:09:53;14.75;;;5.15;;
71127;SDS011;59249;59.736;30.568;2022-12-07T00:12:22;12.73;;;4.68;;
71127;SDS011;59249;59.736;30.568;2022-12-07T00:14:51;15.80;;;5.90;;
71127;SDS011;59249;59.736;30.568;2022-12-07T00:17:20;15.13;;;4.47;;
71127;SDS011;59249;59.736;30.568;2022-12-07T00:19:48;12.63;;;3.90;;
71127;SDS011;59249;59.736;30.568;2022-12-07T00:22:17;12.85;;;5.72;;
71127;SDS011;59249;59.736;30.568;2022-12-07T00:24:47;15.88;;;6.03;;
71127;SDS011;59249;59.736;30.568;2022-12-07T00:27:16;13.52;;;4.13;;
71127;SDS011;59249;59.736;30.568;2022-12-07T00:29:45;12.38;;;4.53;;
71127;SDS011;59249;59.736;30.568;2022-12-07T00:32:13;16.07;;;6.77;;
71127;SDS011;59249;59.736;30.568;2022-12-07T00:34:42;10.95;;;4.30;;
71127;SDS011;59249;59.736;30.568;2022-12-07T00:37:11;10.25;;;3.45;;
71127;SDS011;59249;59.736;30.568;2022-12-07T00:39:40;12.65;;;4.60;;
71127;SDS011;59249;59.736;30.568;2022-12-07T00:42:10;15.25;;;5.47;;
71127;SDS011;59249;59.736;30.568;2022-12-07T00:44:38;9.57;;;4.03;;
71127;SDS011;59249;59.736;30.568;2022-12-07T00:47:07;11.60;;;4.68;;
71127;SDS011;59249;59.736;30.568;2022-12-07T00:49:36;11.07;;;4.15;;
71127;SDS011;59249;59.736;30.568;2022-12-07T00:52:05;11.57;;;4.90;;
71127;SDS011;59249;59.736;30.568;2022-12-07T00:54:33;9.40;;;3.05;;
71127;SDS011;59249;59.736;30.568;2022-12-07T00:57:02;13.83;;;5.07;;
71127;SDS011;59249;59.736;30.568;2022-12-07T00:59:32;12.13;;;4.80;;
71127;SDS011;59249;59.736;30.568;2022-12-07T01:02:01;13.60;;;4.90;;
71127;SDS011;59249;59.736;30.568;2022-12-07T01:04:30;15.32;;;4.72;;
71127;SDS011;59249;59.736;30.568;2022-12-07T01:07:01;10.93;;;4.82;;
71127;SDS011;59249;59.736;30.568;2022-12-07T01:09:30;8.43;;;3.03;;
71127;SDS011;59249;59.736;30.568;2022-12-07T01:11:59;10.88;;;4.20;;
71127;SDS011;59249;59.736;30.568;2022-12-07T01:14:27;10.13;;;3.67;;
71127;SDS011;59249;59.736;30.568;2022-12-07T01:16:57;11.25;;;4.40;;
71127;SDS011;59249;59.736;30.568;2022-12-07T01:19:26;11.18;;;3.30;;
71127;SDS011;59249;59.736;30.568;2022-12-07T01:21:55;10.10;;;3.17;;
71127;SDS011;59249;59.736;30.568;2022-12-07T01:24:24;11.85;;;4.38;;
71127;SDS011;59249;59.736;30.568;2022-12-07T01:26:52;10.45;;;4.40;;
71127;SDS011;59249;59.736;30.568;2022-12-07T01:29:21;11.95;;;4.18;;
71127;SDS011;59249;59.736;30.568;2022-12-07T01:31:50;11.63;;;4.63;;
71127;SDS011;59249;59.736;30.568;2022-12-07T01:34:20;11.60;;;4.43;;
71127;SDS011;59249;59.736;30.568;2022-12-07T01:36:48;11.50;;;3.88;;
71127;SDS011;59249;59.736;30.568;2022-12-07T01:39:17;11.95;;;4.55;;
71127;SDS011;59249;59.736;30.568;2022-12-07T01:41:46;5.90;;;2.42;;
71127;SDS011;59249;59.736;30.568;2022-12-07T01:44:19;9.15;;;4.20;;
71127;SDS011;59249;59.736;30.568;2022-12-07T01:46:51;13.27;;;4.30;;
71127;SDS011;59249;59.736;30.568;2022-12-07T01:49:25;14.27;;;4.45;;
71127;SDS011;59249;59.736;30.568;2022-12-07T01:52:07;8.40;;;4.05;;
71127;SDS011;59249;59.736;30.568;2022-12-07T01:54:45;10.85;;;4.03;;
71127;SDS011;59249;59.736;30.568;2022-12-07T01:57:16;13.77;;;4.70;;
71127;SDS011;59249;59.736;30.568;2022-12-07T01:59:47;4.40;;;1.93;;
71127;SDS011;59249;59.736;30.568;2022-12-07T02:02:19;8.38;;;2.92;;
71127;SDS011;59249;59.736;30.568;2022-12-07T02:04:55;10.88;;;4.28;;
71127;SDS011;59249;59.736;30.568;2022-12-07T02:07:28;12.45;;;5.05;;
71127;SDS011;59249;59.736;30.568;2022-12-07T02:10:11;13.75;;;4.20;;
71127;SDS011;59249;59.736;30.568;2022-12-07T02:12:42;12.93;;;3.70;;
71127;SDS011;59249;59.736;30.568;2022-12-07T02:15:37;7.13;;;2.72;;
71127;SDS011;59249;59.736;30.568;2022-12-07T02:18:35;10.00;;;3.40;;
71127;SDS011;59249;59.736;30.568;2022-12-07T02:21:20;9.52;;;2.85;;
71127;SDS011;59249;59.736;30.568;2022-12-07T02:24:11;11.50;;;4.80;;
71127;SDS011;59249;59.736;30.568;2022-12-07T02:30:06;13.02;;;4.10;;
71127;SDS011;59249;59.736;30.568;2022-12-07T02:32:43;13.73;;;4.80;;
71127;SDS011;59249;59.736;30.568;2022-12-07T02:35:21;16.48;;;3.85;;
71127;SDS011;59249;59.736;30.568;2022-12-07T02:37:59;10.27;;;4.18;;
71127;SDS011;59249;59.736;30.568;2022-12-07T02:40:39;11.70;;;3.73;;
71127;SDS011;59249;59.736;30.568;2022-12-07T02:43:16;8.05;;;3.28;;
71127;SDS011;59249;59.736;30.568;2022-12-07T02:45:51;9.25;;;3.13;;
71127;SDS011;59249;59.736;30.568;2022-12-07T02:48:24;7.72;;;2.53;;
71127;SDS011;59249;59.736;30.568;2022-12-07T02:50:55;9.35;;;3.17;;
71127;SDS011;59249;59.736;30.568;2022-12-07T02:53:30;6.73;;;1.73;;
71127;SDS011;59249;59.736;30.568;2022-12-07T02:56:01;9.98;;;3.65;;
71127;SDS011;59249;59.736;30.568;2022-12-07T02:58:47;12.13;;;4.32;;
71127;SDS011;59249;59.736;30.568;2022-12-07T03:01:33;8.18;;;2.80;;
71127;SDS011;59249;59.736;30.568;2022-12-07T03:04:19;8.95;;;2.97;;
71127;SDS011;59249;59.736;30.568;2022-12-07T03:07:05;9.70;;;3.57;;
71127;SDS011;59249;59.736;30.568;2022-12-07T03:09:48;12.50;;;4.43;;
71127;SDS011;59249;59.736;30.568;2022-12-07T03:12:30;9.32;;;3.28;;
71127;SDS011;59249;59.736;30.568;2022-12-07T03:15:08;9.88;;;3.92;;
71127;SDS011;59249;59.736;30.568;2022-12-07T03:17:45;10.48;;;4.07;;
71127;SDS011;59249;59.736;30.568;2022-12-07T03:20:17;9.90;;;3.57;;
71127;SDS011;59249;59.736;30.568;2022-12-07T03:22:49;9.38;;;2.78;;
71127;SDS011;59249;59.736;30.568;2022-12-07T03:25:21;5.13;;;1.70;;
71127;SDS011;59249;59.736;30.568;2022-12-07T03:27:52;9.52;;;3.95;;
71127;SDS011;59249;59.736;30.568;2022-12-07T03:30:26;10.32;;;4.78;;
71127;SDS011;59249;59.736;30.568;2022-12-07T03:33:03;10.97;;;3.73;;
71127;SDS011;59249;59.736;30.568;2022-12-07T03:35:37;10.93;;;3.58;;
71127;SDS011;59249;59.736;30.568;2022-12-07T03:38:12;9.48;;;3.35;;
71127;SDS011;59249;59.736;30.568;2022-12-07T03:40:49;8.80;;;3.67;;
71127;SDS011;59249;59.736;30.568;2022-12-07T03:43:27;12.50;;;4.15;;
71127;SDS011;59249;59.736;30.568;2022-12-07T03:45:59;13.23;;;3.83;;
71127;SDS011;59249;59.736;30.568;2022-12-07T03:48:40;10.15;;;3.00;;
71127;SDS011;59249;59.736;30.568;2022-12-07T03:51:20;10.35;;;4.03;;
71127;SDS011;59249;59.736;30.568;2022-12-07T03:53:54;6.57;;;2.80;;
71127;SDS011;59249;59.736;30.568;2022-12-07T03:56:33;6.18;;;3.10;;
71127;SDS011;59249;59.736;30.568;2022-12-07T03:59:04;8.17;;;3.20;;
71127;SDS011;59249;59.736;30.568;2022-12-07T04:01:34;10.52;;;4.38;;
71127;SDS011;59249;59.736;30.568;2022-12-07T04:04:04;10.10;;;2.80;;
71127;SDS011;59249;59.736;30.568;2022-12-07T04:06:33;7.70;;;2.80;;
71127;SDS011;59249;59.736;30.568;2022-12-07T04:09:02;10.35;;;3.08;;
71127;SDS011;59249;59.736;30.568;2022-12-07T04:11:31;11.93;;;4.87;;
71127;SDS011;59249;59.736;30.568;2022-12-07T04:13:59;10.25;;;3.55;;
71127;SDS011;59249;59.736;30.568;2022-12-07T04:16:47;12.77;;;4.55;;
71127;SDS011;59249;59.736;30.568;2022-12-07T04:19:19;7.10;;;2.78;;
71127;SDS011;59249;59.736;30.568;2022-12-07T04:21:51;13.00;;;4.65;;
71127;SDS011;59249;59.736;30.568;2022-12-07T04:24:20;10.93;;;4.30;;
71127;SDS011;59249;59.736;30.568;2022-12-07T04:26:50;10.88;;;4.53;;
71127;SDS011;59249;59.736;30.568;2022-12-07T04:29:19;10.80;;;3.97;;
71127;SDS011;59249;59.736;30.568;2022-12-07T04:31:49;13.52;;;5.13;;
71127;SDS011;59249;59.736;30.568;2022-12-07T04:34:20;10.40;;;3.90;;
71127;SDS011;59249;59.736;30.568;2022-12-07T04:36:48;9.83;;;4.17;;
71127;SDS011;59249;59.736;30.568;2022-12-07T04:39:18;13.25;;;4.60;;
71127;SDS011;59249;59.736;30.568;2022-12-07T04:41:50;11.32;;;3.53;;
71127;SDS011;59249;59.736;30.568;2022-12-07T04:44:20;11.90;;;4.35;;
71127;SDS011;59249;59.736;30.568;2022-12-07T04:46:49;9.23;;;3.08;;
71127;SDS011;59249;59.736;30.568;2022-12-07T04:49:21;8.53;;;3.13;;
71127;SDS011;59249;59.736;30.568;2022-12-07T04:51:51;12.13;;;4.68;;
71127;SDS011;59249;59.736;30.568;2022-12-07T04:54:20;9.82;;;4.20;;
71127;SDS011;59249;59.736;30.568;2022-12-07T04:56:49;7.53;;;2.45;;
71127;SDS011;59249;59.736;30.568;2022-12-07T04:59:18;9.55;;;3.45;;
71127;SDS011;59249;59.736;30.568;2022-12-07T05:01:46;8.13;;;3.53;;
71127;SDS011;59249;59.736;30.568;2022-12-07T05:04:15;10.52;;;3.60;;
71127;SDS011;59249;59.736;30.568;2022-12-07T05:06:46;10.02;;;3.38;;
71127;SDS011;59249;59.736;30.568;2022-12-07T05:09:15;10.82;;;4.00;;
71127;SDS011;59249;59.736;30.568;2022-12-07T05:11:44;6.22;;;2.60;;
71127;SDS011;59249;59.736;30.568;2022-12-07T05:14:13;8.13;;;3.37;;
71127;SDS011;59249;59.736;30.568;2022-12-07T05:16:44;10.68;;;3.80;;
71127;SDS011;59249;59.736;30.568;2022-12-07T05:19:15;10.25;;;4.55;;
71127;SDS011;59249;59.736;30.568;2022-12-07T05:21:46;9.48;;;3.20;;
71127;SDS011;59249;59.736;30.568;2022-12-07T05:24:15;9.80;;;3.83;;
71127;SDS011;59249;59.736;30.568;2022-12-07T05:26:45;5.57;;;2.03;;
71127;SDS011;59249;59.736;30.568;2022-12-07T05:29:14;8.50;;;3.17;;
71127;SDS011;59249;59.736;30.568;2022-12-07T05:31:44;9.32;;;3.30;;
71127;SDS011;59249;59.736;30.568;2022-12-07T05:34:13;9.20;;;3.33;;
71127;SDS011;59249;59.736;30.568;2022-12-07T05:36:42;9.38;;;4.20;;
71127;SDS011;59249;59.736;30.568;2022-12-07T05:39:12;11.00;;;3.70;;
71127;SDS011;59249;59.736;30.568;2022-12-07T05:41:41;9.82;;;3.33;;
71127;SDS011;59249;59.736;30.568;2022-12-07T05:44:27;10.50;;;2.45;;
71127;SDS011;59249;59.736;30.568;2022-12-07T05:46:56;8.90;;;3.22;;
71127;SDS011;59249;59.736;30.568;2022-12-07T05:49:25;7.05;;;2.67;;
71127;SDS011;59249;59.736;30.568;2022-12-07T05:51:53;8.87;;;2.53;;
71127;SDS011;59249;59.736;30.568;2022-12-07T05:54:23;7.38;;;3.22;;
71127;SDS011;59249;59.736;30.568;2022-12-07T05:56:52;7.25;;;2.03;;
71127;SDS011;59249;59.736;30.568;2022-12-07T05:59:21;7.80;;;2.83;;
71127;SDS011;59249;59.736;30.568;2022-12-07T06:01:49;11.85;;;3.42;;
71127;SDS011;59249;59.736;30.568;2022-12-07T06:04:19;11.13;;;3.60;;
71127;SDS011;59249;59.736;30.568;2022-12-07T06:06:49;11.43;;;4.47;;
71127;SDS011;59249;59.736;30.568;2022-12-07T06:09:18;9.82;;;2.58;;
71127;SDS011;59249;59.736;30.568;2022-12-07T06:11:49;7.47;;;3.40;;
71127;SDS011;59249;59.736;30.568;2022-12-07T06:14:36;7.55;;;2.47;;
71127;SDS011;59249;59.736;30.568;2022-12-07T06:17:05;5.67;;;2.13;;
71127;SDS011;59249;59.736;30.568;2022-12-07T06:19:34;11.77;;;3.92;;
71127;SDS011;59249;59.736;30.568;2022-12-07T06:22:03;8.23;;;2.80;;
71127;SDS011;59249;59.736;30.568;2022-12-07T06:24:33;9.70;;;3.05;;
71127;SDS011;59249;59.736;30.568;2022-12-07T06:27:03;7.05;;;2.65;;
71127;SDS011;59249;59.736;30.568;2022-12-07T06:29:33;9.03;;;1.93;;
71127;SDS011;59249;59.736;30.568;2022-12-07T06:32:01;5.65;;;1.98;;
71127;SDS011;59249;59.736;30.568;2022-12-07T06:34:31;8.43;;;2.78;;
71127;SDS011;59249;59.736;30.568;2022-12-07T06:37:00;8.57;;;2.53;;
71127;SDS011;59249;59.736;30.568;2022-12-07T06:39:29;7.97;;;2.88;;
71127;SDS011;59249;59.736;30.568;2022-12-07T06:41:58;8.63;;;2.90;;
71127;SDS011;59249;59.736;30.568;2022-12-07T06:44:29;10.38;;;2.65;;
71127;SDS011;59249;59.736;30.568;2022-12-07T06:46:57;8.60;;;3.35;;
71127;SDS011;59249;59.736;30.568;2022-12-07T06:49:46;6.25;;;2.22;;
71127;SDS011;59249;59.736;30.568;2022-12-07T06:52:16;4.20;;;1.38;;
71127;SDS011;59249;59.736;30.568;2022-12-07T06:54:45;8.87;;;2.77;;
71127;SDS011;59249;59.736;30.568;2022-12-07T06:57:14;7.05;;;2.05;;
71127;SDS011;59249;59.736;30.568;2022-12-07T06:59:44;6.85;;;2.22;;
71127;SDS011;59249;59.736;30.568;2022-12-07T07:02:12;8.93;;;2.83;;
71127;SDS011;59249;59.736;30.568;2022-12-07T07:04:41;7.85;;;2.65;;
71127;SDS011;59249;59.736;30.568;2022-12-07T07:07:10;6.43;;;2.50;;
71127;SDS011;59249;59.736;30.568;2022-12-07T07:09:39;7.93;;;2.88;;
71127;SDS011;59249;59.736;30.568;2022-12-07T07:12:08;8.02;;;2.65;;
71127;SDS011;59249;59.736;30.568;2022-12-07T07:14:36;7.60;;;2.47;;
71127;SDS011;59249;59.736;30.568;2022-12-07T07:17:07;9.38;;;2.78;;
71127;SDS011;59249;59.736;30.568;2022-12-07T07:19:35;7.30;;;2.53;;
71127;SDS011;59249;59.736;30.568;2022-12-07T07:22:04;9.60;;;2.90;;
71127;SDS011;59249;59.736;30.568;2022-12-07T07:24:33;6.82;;;2.67;;
71127;SDS011;59249;59.736;30.568;2022-12-07T07:27:02;7.82;;;2.55;;
71127;SDS011;59249;59.736;30.568;2022-12-07T07:29:31;4.75;;;1.60;;
71127;SDS011;59249;59.736;30.568;2022-12-07T07:31:59;5.60;;;2.23;;
71127;SDS011;59249;59.736;30.568;2022-12-07T07:34:34;6.35;;;2.55;;
71127;SDS011;59249;59.736;30.568;2022-12-07T07:37:02;8.55;;;3.10;;
71127;SDS011;59249;59.736;30.568;2022-12-07T07:39:32;7.65;;;2.92;;
71127;SDS011;59249;59.736;30.568;2022-12-07T07:42:00;6.25;;;1.42;;
71127;SDS011;59249;59.736;30.568;2022-12-07T07:44:32;7.43;;;2.63;;
71127;SDS011;59249;59.736;30.568;2022-12-07T07:47:01;6.60;;;1.83;;
71127;SDS011;59249;59.736;30.568;2022-12-07T07:49:31;8.23;;;2.80;;
71127;SDS011;59249;59.736;30.568;2022-12-07T07:52:01;9.23;;;2.63;;
71127;SDS011;59249;59.736;30.568;2022-12-07T07:54:31;6.30;;;2.50;;
71127;SDS011;59249;59.736;30.568;2022-12-07T07:56:59;7.23;;;2.40;;
71127;SDS011;59249;59.736;30.568;2022-12-07T07:59:28;6.05;;;2.13;;
71127;SDS011;59249;59.736;30.568;2022-12-07T08:01:57;3.83;;;1.17;;
71127;SDS011;59249;59.736;30.568;2022-12-07T08:04:26;5.18;;;1.17;;
71127;SDS011;59249;59.736;30.568;2022-12-07T08:06:56;6.45;;;2.13;;
71127;SDS011;59249;59.736;30.568;2022-12-07T08:09:25;7.00;;;2.53;;
71127;SDS011;59249;59.736;30.568;2022-12-07T08:11:53;7.10;;;2.03;;
71127;SDS011;59249;59.736;30.568;2022-12-07T08:14:22;6.72;;;2.13;;
71127;SDS011;59249;59.736;30.568;2022-12-07T08:16:54;8.95;;;2.72;;
71127;SDS011;59249;59.736;30.568;2022-12-07T08:19:22;6.45;;;2.13;;
71127;SDS011;59249;59.736;30.568;2022-12-07T08:21:51;6.20;;;2.03;;
71127;SDS011;59249;59.736;30.568;2022-12-07T08:24:23;5.85;;;1.83;;
71127;SDS011;59249;59.736;30.568;2022-12-07T08:26:52;6.32;;;2.40;;
71127;SDS011;59249;59.736;30.568;2022-12-07T08:29:21;8.18;;;2.72;;
71127;SDS011;59249;59.736;30.568;2022-12-07T08:31:50;7.38;;;1.77;;
71127;SDS011;59249;59.736;30.568;2022-12-07T08:34:19;6.87;;;2.57;;
71127;SDS011;59249;59.736;30.568;2022-12-07T08:36:47;7.95;;;1.92;;
71127;SDS011;59249;59.736;30.568;2022-12-07T08:39:16;10.45;;;2.38;;
71127;SDS011;59249;59.736;30.568;2022-12-07T08:42:02;5.80;;;1.85;;
71127;SDS011;59249;59.736;30.568;2022-12-07T08:44:31;9.48;;;2.63;;
71127;SDS011;59249;59.736;30.568;2022-12-07T08:47:00;9.17;;;2.77;;
71127;SDS011;59249;59.736;30.568;2022-12-07T08:49:34;6.03;;;2.25;;
71127;SDS011;59249;59.736;30.568;2022-12-07T08:52:09;7.53;;;2.47;;
71127;SDS011;59249;59.736;30.568;2022-12-07T08:54:38;6.75;;;2.13;;
71127;SDS011;59249;59.736;30.568;2022-12-07T08:57:10;7.22;;;2.22;;
71127;SDS011;59249;59.736;30.568;2022-12-07T08:59:40;8.13;;;2.50;;
71127;SDS011;59249;59.736;30.568;2022-12-07T09:02:08;5.97;;;1.92;;
71127;SDS011;59249;59.736;30.568;2022-12-07T09:04:37;5.38;;;1.92;;
71127;SDS011;59249;59.736;30.568;2022-12-07T09:07:06;6.50;;;1.75;;
71127;SDS011;59249;59.736;30.568;2022-12-07T09:09:35;7.57;;;2.47;;
71127;SDS011;59249;59.736;30.568;2022-12-07T09:12:04;9.23;;;2.00;;
71127;SDS011;59249;59.736;30.568;2022-12-07T09:14:34;6.05;;;1.83;;
71127;SDS011;59249;59.736;30.568;2022-12-07T09:17:06;5.53;;;2.30;;
71127;SDS011;59249;59.736;30.568;2022-12-07T09:19:37;4.25;;;1.13;;
71127;SDS011;59249;59.736;30.568;2022-12-07T09:22:08;7.18;;;2.15;;
71127;SDS011;59249;59.736;30.568;2022-12-07T09:24:37;6.63;;;2.20;;
71127;SDS011;59249;59.736;30.568;2022-12-07T09:27:06;6.88;;;2.15;;
71127;SDS011;59249;59.736;30.568;2022-12-07T09:29:36;5.57;;;1.65;;
71127;SDS011;59249;59.736;30.568;2022-12-07T09:32:05;7.57;;;2.22;;
71127;SDS011;59249;59.736;30.568;2022-12-07T09:34:37;7.47;;;1.88;;
71127;SDS011;59249;59.736;30.568;2022-12-07T09:37:06;6.13;;;2.40;;
71127;SDS011;59249;59.736;30.568;2022-12-07T09:39:38;5.82;;;1.90;;
71127;SDS011;59249;59.736;30.568;2022-12-07T09:42:21;9.80;;;2.92;;
71127;SDS011;59249;59.736;30.568;2022-12-07T09:44:59;5.47;;;1.85;;
71127;SDS011;59249;59.736;30.568;2022-12-07T09:47:29;7.63;;;2.80;;
71127;SDS011;59249;59.736;30.568;2022-12-07T09:50:03;5.50;;;1.60;;
71127;SDS011;59249;59.736;30.568;2022-12-07T09:52:35;5.95;;;2.08;;
71127;SDS011;59249;59.736;30.568;2022-12-07T09:55:09;5.28;;;1.45;;
71127;SDS011;59249;59.736;30.568;2022-12-07T09:57:41;6.88;;;2.25;;
71127;SDS011;59249;59.736;30.568;2022-12-07T10:00:13;6.03;;;1.88;;
71127;SDS011;59249;59.736;30.568;2022-12-07T10:02:46;6.10;;;1.97;;
71127;SDS011;59249;59.736;30.568;2022-12-07T10:05:22;6.53;;;1.92;;
71127;SDS011;59249;59.736;30.568;2022-12-07T10:07:58;7.53;;;2.13;;
71127;SDS011;59249;59.736;30.568;2022-12-07T10:10:30;6.90;;;2.20;;
71127;SDS011;59249;59.736;30.568;2022-12-07T10:13:05;4.82;;;1.65;;
71127;SDS011;59249;59.736;30.568;2022-12-07T10:15:44;6.47;;;2.07;;
71127;SDS011;59249;59.736;30.568;2022-12-07T10:18:28;8.25;;;3.58;;
71127;SDS011;59249;59.736;30.568;2022-12-07T10:21:03;3.75;;;1.13;;
71127;SDS011;59249;59.736;30.568;2022-12-07T10:23:39;7.93;;;2.47;;
71127;SDS011;59249;59.736;30.568;2022-12-07T10:26:21;6.53;;;1.98;;
71127;SDS011;59249;59.736;30.568;2022-12-07T10:29:00;5.10;;;1.90;;
71127;SDS011;59249;59.736;30.568;2022-12-07T10:31:43;4.32;;;0.88;;
71127;SDS011;59249;59.736;30.568;2022-12-07T10:34:20;6.38;;;1.52;;
71127;SDS011;59249;59.736;30.568;2022-12-07T10:36:51;7.00;;;2.25;;
71127;SDS011;59249;59.736;30.568;2022-12-07T10:39:22;4.80;;;1.58;;
71127;SDS011;59249;59.736;30.568;2022-12-07T10:41:55;8.53;;;2.30;;
71127;SDS011;59249;59.736;30.568;2022-12-07T10:44:26;6.85;;;2.28;;
71127;SDS011;59249;59.736;30.568;2022-12-07T10:47:03;8.15;;;2.08;;
71127;SDS011;59249;59.736;30.568;2022-12-07T10:53:07;6.57;;;1.40;;
71127;SDS011;59249;59.736;30.568;2022-12-07T10:59:35;3.90;;;1.00;;
71127;SDS011;59249;59.736;30.568;2022-12-07T11:02:25;3.15;;;1.20;;
71127;SDS011;59249;59.736;30.568;2022-12-07T11:05:30;2.58;;;1.17;;
71127;SDS011;59249;59.736;30.568;2022-12-07T11:08:12;6.93;;;2.05;;
71127;SDS011;59249;59.736;30.568;2022-12-07T11:10:54;5.00;;;1.47;;
71127;SDS011;59249;59.736;30.568;2022-12-07T11:13:35;6.00;;;1.40;;
71127;SDS011;59249;59.736;30.568;2022-12-07T11:16:24;8.77;;;2.75;;
71127;SDS011;59249;59.736;30.568;2022-12-07T11:19:34;11.05;;;2.38;;
71127;SDS011;59249;59.736;30.568;2022-12-07T11:22:19;7.93;;;1.95;;
71127;SDS011;59249;59.736;30.568;2022-12-07T11:24:56;8.10;;;1.70;;
71127;SDS011;59249;59.736;30.568;2022-12-07T11:27:43;8.70;;;2.13;;
71127;SDS011;59249;59.736;30.568;2022-12-07T11:30:32;6.10;;;2.05;;
71127;SDS011;59249;59.736;30.568;2022-12-07T11:33:13;11.15;;;2.97;;
71127;SDS011;59249;59.736;30.568;2022-12-07T11:36:00;7.30;;;2.33;;
71127;SDS011;59249;59.736;30.568;2022-12-07T11:38:44;3.47;;;1.43;;
71127;SDS011;59249;59.736;30.568;2022-12-07T11:41:19;8.77;;;2.40;;
71127;SDS011;59249;59.736;30.568;2022-12-07T11:43:55;5.80;;;1.48;;
71127;SDS011;59249;59.736;30.568;2022-12-07T11:46:39;7.75;;;2.35;;
71127;SDS011;59249;59.736;30.568;2022-12-07T11:49:19;6.05;;;1.35;;
71127;SDS011;59249;59.736;30.568;2022-12-07T11:52:04;7.07;;;2.77;;
71127;SDS011;59249;59.736;30.568;2022-12-07T11:54:41;7.63;;;2.70;;
71127;SDS011;59249;59.736;30.568;2022-12-07T11:57:15;9.13;;;2.50;;
71127;SDS011;59249;59.736;30.568;2022-12-07T11:59:56;3.75;;;1.05;;
71127;SDS011;59249;59.736;30.568;2022-12-07T12:02:32;7.20;;;1.77;;
71127;SDS011;59249;59.736;30.568;2022-12-07T12:05:12;8.90;;;2.57;;
71127;SDS011;59249;59.736;30.568;2022-12-07T12:07:48;6.32;;;2.00;;
71127;SDS011;59249;59.736;30.568;2022-12-07T12:10:54;7.97;;;2.30;;
71127;SDS011;59249;59.736;30.568;2022-12-07T12:13:38;5.03;;;1.70;;
71127;SDS011;59249;59.736;30.568;2022-12-07T12:20:13;5.97;;;2.07;;
71127;SDS011;59249;59.736;30.568;2022-12-07T12:22:52;9.57;;;2.03;;
71127;SDS011;59249;59.736;30.568;2022-12-07T12:25:27;8.50;;;1.80;;
71127;SDS011;59249;59.736;30.568;2022-12-07T12:28:04;6.63;;;1.77;;
71127;SDS011;59249;59.736;30.568;2022-12-07T12:30:34;12.15;;;2.30;;
71127;SDS011;59249;59.736;30.568;2022-12-07T12:33:12;7.43;;;2.13;;
71127;SDS011;59249;59.736;30.568;2022-12-07T12:35:50;5.75;;;1.83;;
71127;SDS011;59249;59.736;30.568;2022-12-07T12:41:51;7.07;;;1.73;;
71127;SDS011;59249;59.736;30.568;2022-12-07T12:50:28;5.47;;;1.63;;
71127;SDS011;59249;59.736;30.568;2022-12-07T12:53:14;6.30;;;1.80;;
71127;SDS011;59249;59.736;30.568;2022-12-07T12:56:10;5.88;;;2.20;;
71127;SDS011;59249;59.736;30.568;2022-12-07T12:59:23;5.97;;;2.88;;
71127;SDS011;59249;59.736;30.568;2022-12-07T13:02:14;6.97;;;2.27;;
71127;SDS011;59249;59.736;30.568;2022-12-07T13:04:53;11.80;;;3.92;;
71127;SDS011;59249;59.736;30.568;2022-12-07T13:10:37;10.00;;;3.40;;
71127;SDS011;59249;59.736;30.568;2022-12-07T13:16:52;8.60;;;3.40;;
71127;SDS011;59249;59.736;30.568;2022-12-07T13:28:18;10.82;;;3.47;;
71127;SDS011;59249;59.736;30.568;2022-12-07T13:31:02;9.87;;;3.77;;
71127;SDS011;59249;59.736;30.568;2022-12-07T13:33:44;8.30;;;3.58;;
71127;SDS011;59249;59.736;30.568;2022-12-07T13:36:16;10.25;;;3.38;;
71127;SDS011;59249;59.736;30.568;2022-12-07T13:38:54;10.27;;;3.70;;
71127;SDS011;59249;59.736;30.568;2022-12-07T13:41:25;11.60;;;4.97;;
71127;SDS011;59249;59.736;30.568;2022-12-07T13:44:00;9.20;;;3.37;;
71127;SDS011;59249;59.736;30.568;2022-12-07T13:46:37;15.30;;;4.32;;
71127;SDS011;59249;59.736;30.568;2022-12-07T13:49:19;8.40;;;3.22;;
71127;SDS011;59249;59.736;30.568;2022-12-07T13:51:52;12.15;;;3.13;;
71127;SDS011;59249;59.736;30.568;2022-12-07T13:54:22;9.88;;;3.42;;
71127;SDS011;59249;59.736;30.568;2022-12-07T13:56:51;14.80;;;5.53;;
71127;SDS011;59249;59.736;30.568;2022-12-07T13:59:21;8.30;;;4.18;;
71127;SDS011;59249;59.736;30.568;2022-12-07T14:01:53;13.05;;;5.38;;
71127;SDS011;59249;59.736;30.568;2022-12-07T14:04:31;11.27;;;4.13;;
71127;SDS011;59249;59.736;30.568;2022-12-07T14:07:23;12.32;;;5.13;;
71127;SDS011;59249;59.736;30.568;2022-12-07T14:09:55;11.60;;;4.67;;
71127;SDS011;59249;59.736;30.568;2022-12-07T14:12:32;16.05;;;6.53;;
71127;SDS011;59249;59.736;30.568;2022-12-07T14:15:04;10.30;;;4.88;;
71127;SDS011;59249;59.736;30.568;2022-12-07T14:17:54;16.45;;;4.82;;
71127;SDS011;59249;59.736;30.568;2022-12-07T14:20:30;15.50;;;4.82;;
71127;SDS011;59249;59.736;30.568;2022-12-07T14:23:03;12.47;;;4.57;;
71127;SDS011;59249;59.736;30.568;2022-12-07T14:25:44;14.77;;;4.88;;
71127;SDS011;59249;59.736;30.568;2022-12-07T14:28:26;15.60;;;6.20;;
71127;SDS011;59249;59.736;30.568;2022-12-07T14:30:57;10.35;;;4.82;;
71127;SDS011;59249;59.736;30.568;2022-12-07T14:33:26;13.30;;;5.38;;
71127;SDS011;59249;59.736;30.568;2022-12-07T14:35:57;9.50;;;4.60;;
71127;SDS011;59249;59.736;30.568;2022-12-07T14:38:31;14.55;;;4.78;;
71127;SDS011;59249;59.736;30.568;2022-12-07T14:41:09;9.55;;;3.63;;
71127;SDS011;59249;59.736;30.568;2022-12-07T14:44:00;9.85;;;4.22;;
71127;SDS011;59249;59.736;30.568;2022-12-07T14:46:49;9.20;;;3.60;;
71127;SDS011;59249;59.736;30.568;2022-12-07T14:49:39;13.40;;;3.57;;
71127;SDS011;59249;59.736;30.568;2022-12-07T14:52:11;7.85;;;3.80;;
71127;SDS011;59249;59.736;30.568;2022-12-07T14:55:04;13.02;;;4.03;;
71127;SDS011;59249;59.736;30.568;2022-12-07T14:57:42;14.25;;;5.05;;
71127;SDS011;59249;59.736;30.568;2022-12-07T15:00:13;12.07;;;4.45;;
71127;SDS011;59249;59.736;30.568;2022-12-07T15:02:44;13.40;;;4.47;;
71127;SDS011;59249;59.736;30.568;2022-12-07T15:05:14;10.75;;;3.55;;
71127;SDS011;59249;59.736;30.568;2022-12-07T15:07:46;9.82;;;3.78;;
71127;SDS011;59249;59.736;30.568;2022-12-07T15:10:17;11.05;;;3.85;;
71127;SDS011;59249;59.736;30.568;2022-12-07T15:12:50;10.82;;;4.18;;
71127;SDS011;59249;59.736;30.568;2022-12-07T15:15:19;14.47;;;4.60;;
71127;SDS011;59249;59.736;30.568;2022-12-07T15:17:48;10.73;;;4.50;;
71127;SDS011;59249;59.736;30.568;2022-12-07T15:20:16;12.45;;;5.22;;
71127;SDS011;59249;59.736;30.568;2022-12-07T15:22:47;13.20;;;5.45;;
71127;SDS011;59249;59.736;30.568;2022-12-07T15:25:16;11.30;;;3.72;;
71127;SDS011;59249;59.736;30.568;2022-12-07T15:27:45;13.63;;;4.53;;
71127;SDS011;59249;59.736;30.568;2022-12-07T15:30:13;11.88;;;5.20;;
71127;SDS011;59249;59.736;30.568;2022-12-07T15:32:42;10.25;;;3.38;;
71127;SDS011;59249;59.736;30.568;2022-12-07T15:35:11;17.02;;;6.43;;
71127;SDS011;59249;59.736;30.568;2022-12-07T15:37:40;9.65;;;4.45;;
71127;SDS011;59249;59.736;30.568;2022-12-07T15:40:11;13.40;;;4.77;;
71127;SDS011;59249;59.736;30.568;2022-12-07T15:42:41;12.95;;;4.40;;
71127;SDS011;59249;59.736;30.568;2022-12-07T15:45:10;10.38;;;4.50;;
71127;SDS011;59249;59.736;30.568;2022-12-07T15:47:40;9.93;;;4.25;;